Time;durP1;ratioP1;P1;durP2;ratioP2;P2;SDS_P1;SDS_P2;PMS_P1;PMS_P2;Temp;Humidity;BMP_temperature;BMP_pressure;BME280_temperature;BME280_humidity;BME280_pressure;Samples;Min_cycle;Max_cycle;Signal;HPM_P1;HPM_P2
2022/02/16 00:02:00;;;;;;;3.57;2.77;;;;;;;;;;4914968;29;20224;-76
2022/02/16 00:04:28;;;;;;;4.53;3.10;;;;;;;;;;4897775;29;20894;-75
2022/02/16 00:06:56;;;;;;;3.50;3.03;;;;;;;;;;4912895;29;20224;-76
2022/02/16 00:09:21;;;;;;;4.67;3.40;;;;;;;;;;4902315;28;20305;-77
2022/02/16 00:11:49;;;;;;;5.20;3.10;;;;;;;;;;4901370;29;20713;-76
2022/02/16 00:14:17;;;;;;;5.63;3.17;;;;;;;;;;4916462;29;20228;-75
2022/02/16 00:16:45;;;;;;;3.33;3.03;;;;;;;;;;4901100;29;20228;-75
2022/02/16 00:19:10;;;;;;;4.53;3.40;;;;;;;;;;4920306;28;20360;-74
2022/02/16 00:21:38;;;;;;;3.23;2.90;;;;;;;;;;4919876;29;20219;-76
2022/02/16 00:24:07;;;;;;;3.60;3.03;;;;;;;;;;4911389;28;20228;-76
2022/02/16 00:26:35;;;;;;;3.63;2.93;;;;;;;;;;4919908;29;20302;-75
2022/02/16 00:29:06;;;;;;;4.37;2.67;;;;;;;;;;4936230;28;20601;-76
2022/02/16 00:31:33;;;;;;;3.37;2.63;;;;;;;;;;4897259;29;20233;-76
2022/02/16 00:34:01;;;;;;;5.60;3.30;;;;;;;;;;4897422;29;20243;-76
2022/02/16 00:36:27;;;;;;;3.57;3.10;;;;;;;;;;4933711;28;20258;-75
2022/02/16 00:38:58;;;;;;;4.20;3.27;;;;;;;;;;4935782;29;20247;-75
2022/02/16 00:41:24;;;;;;;4.90;3.70;;;;;;;;;;4917740;29;20220;-75
2022/02/16 00:43:55;;;;;;;5.73;3.87;;;;;;;;;;4931229;29;20643;-75
2022/02/16 00:46:21;;;;;;;4.73;3.60;;;;;;;;;;4947562;28;20239;-75
2022/02/16 00:48:48;;;;;;;4.60;3.77;;;;;;;;;;4936387;29;20310;-76
2022/02/16 00:51:17;;;;;;;4.27;3.97;;;;;;;;;;4919825;29;20254;-75
2022/02/16 00:53:45;;;;;;;5.23;4.23;;;;;;;;;;4915786;29;20240;-76
2022/02/16 00:56:11;;;;;;;5.40;4.23;;;;;;;;;;4897711;28;20223;-75
2022/02/16 00:58:39;;;;;;;4.77;4.27;;;;;;;;;;4904351;29;20228;-76
2022/02/16 01:01:05;;;;;;;4.70;4.30;;;;;;;;;;4891806;29;20424;-76
2022/02/16 01:03:33;;;;;;;5.50;4.10;;;;;;;;;;4915742;29;20235;-75
2022/02/16 01:06:03;;;;;;;6.83;4.47;;;;;;;;;;4926569;29;20306;-74
2022/02/16 01:08:29;;;;;;;5.43;4.30;;;;;;;;;;4902695;29;20236;-76
2022/02/16 01:10:55;;;;;;;4.87;4.30;;;;;;;;;;4914205;29;20220;-75
2022/02/16 01:13:26;;;;;;;4.97;4.10;;;;;;;;;;4899438;29;20710;-76
2022/02/16 01:15:54;;;;;;;4.77;4.30;;;;;;;;;;4924665;29;20239;-76
2022/02/16 01:18:20;;;;;;;4.67;4.27;;;;;;;;;;4918640;28;20223;-76
2022/02/16 01:20:49;;;;;;;4.83;4.43;;;;;;;;;;4911441;29;20234;-76
2022/02/16 01:23:14;;;;;;;5.47;4.37;;;;;;;;;;4914277;29;20224;-75
2022/02/16 01:25:43;;;;;;;4.70;4.30;;;;;;;;;;4921358;29;20231;-75
2022/02/16 01:28:24;;;;;;;5.37;4.87;;;;;;;;;;4936687;28;20219;-76
2022/02/16 01:30:52;;;;;;;5.77;5.03;;;;;;;;;;4930867;29;20216;-75
2022/02/16 01:33:27;;;;;;;5.90;5.30;;;;;;;;;;4916572;29;20881;-76
2022/02/16 01:35:53;;;;;;;5.33;4.93;;;;;;;;;;4890036;29;20216;-75
2022/02/16 01:38:20;;;;;;;5.10;4.60;;;;;;;;;;4926575;29;20224;-76
2022/02/16 01:40:58;;;;;;;5.00;4.60;;;;;;;;;;4889995;29;20219;-74
2022/02/16 01:43:27;;;;;;;4.73;4.33;;;;;;;;;;4901624;28;20366;-75
2022/02/16 01:45:56;;;;;;;6.03;5.00;;;;;;;;;;4897570;29;20224;-75
2022/02/16 01:48:25;;;;;;;5.00;4.60;;;;;;;;;;4898700;29;20238;-78
2022/02/16 01:50:51;;;;;;;5.07;4.67;;;;;;;;;;4919160;29;20227;-76
2022/02/16 01:53:32;;;;;;;4.93;4.50;;;;;;;;;;4933621;29;20662;-76
2022/02/16 01:55:58;;;;;;;5.57;5.07;;;;;;;;;;4914622;29;20756;-76
2022/02/16 01:58:24;;;;;;;5.87;5.13;;;;;;;;;;4905113;29;20228;-75
2022/02/16 02:01:15;;;;;;;5.70;5.13;;;;;;;;;;4910211;28;20306;-74
2022/02/16 02:04:00;;;;;;;5.20;4.80;;;;;;;;;;4918983;29;20227;-78
2022/02/16 02:06:30;;;;;;;5.00;4.70;;;;;;;;;;4933527;28;20231;-77
2022/02/16 02:08:58;;;;;;;5.20;4.80;;;;;;;;;;4933577;29;20245;-75
2022/02/16 02:11:27;;;;;;;5.13;4.67;;;;;;;;;;4896102;29;20216;-75
2022/02/16 02:14:01;;;;;;;5.53;4.93;;;;;;;;;;4915285;29;20598;-75
2022/02/16 02:16:40;;;;;;;5.23;4.77;;;;;;;;;;4891333;29;20233;-74
2022/02/16 02:19:10;;;;;;;5.33;4.93;;;;;;;;;;4933086;28;20238;-75
2022/02/16 02:21:39;;;;;;;5.33;4.83;;;;;;;;;;4896674;29;20235;-75
2022/02/16 02:24:10;;;;;;;5.80;5.30;;;;;;;;;;4930240;29;20232;-77
2022/02/16 02:26:39;;;;;;;5.50;5.10;;;;;;;;;;4919143;29;20754;-75
2022/02/16 02:29:09;;;;;;;5.73;5.23;;;;;;;;;;4886656;28;20231;-76
2022/02/16 02:31:49;;;;;;;6.03;5.30;;;;;;;;;;4928859;29;20220;-77
2022/02/16 02:34:17;;;;;;;6.03;5.53;;;;;;;;;;4913844;29;20232;-77
2022/02/16 02:36:50;;;;;;;5.80;5.30;;;;;;;;;;4918521;29;20251;-76
2022/02/16 02:39:19;;;;;;;5.50;5.00;;;;;;;;;;4933842;28;20258;-74
2022/02/16 02:41:49;;;;;;;6.03;5.50;;;;;;;;;;4929594;29;20251;-75
2022/02/16 02:44:19;;;;;;;6.23;5.70;;;;;;;;;;4898434;29;20658;-75
2022/02/16 02:46:47;;;;;;;5.73;5.03;;;;;;;;;;4902758;29;20246;-76
2022/02/16 02:49:16;;;;;;;5.67;5.07;;;;;;;;;;4919113;28;20227;-78
2022/02/16 02:51:45;;;;;;;6.10;5.50;;;;;;;;;;4950116;29;20242;-75
2022/02/16 02:54:12;;;;;;;6.10;5.60;;;;;;;;;;4943037;28;20717;-76
2022/02/16 02:56:41;;;;;;;6.00;5.50;;;;;;;;;;4920444;29;20227;-75
2022/02/16 02:59:11;;;;;;;6.07;5.57;;;;;;;;;;4898798;29;20594;-76
2022/02/16 03:01:40;;;;;;;6.03;5.53;;;;;;;;;;4914433;29;20277;-76
2022/02/16 03:04:10;;;;;;;6.07;5.57;;;;;;;;;;4901549;28;20238;-75
2022/02/16 03:06:40;;;;;;;6.83;6.07;;;;;;;;;;4933163;29;20223;-76
2022/02/16 03:09:10;;;;;;;6.83;6.13;;;;;;;;;;4894708;29;20239;-75
2022/02/16 03:11:38;;;;;;;6.53;5.97;;;;;;;;;;4910094;29;20710;-75
2022/02/16 03:14:05;;;;;;;6.50;5.90;;;;;;;;;;4930524;28;20290;-75
2022/02/16 03:16:35;;;;;;;6.77;6.00;;;;;;;;;;4932581;29;20637;-75
2022/02/16 03:19:01;;;;;;;6.97;6.37;;;;;;;;;;4901669;29;20316;-75
2022/02/16 03:21:30;;;;;;;6.77;6.23;;;;;;;;;;4899729;29;20743;-76
2022/02/16 03:23:58;;;;;;;6.67;6.07;;;;;;;;;;4929072;29;20254;-75
2022/02/16 03:26:24;;;;;;;6.53;5.93;;;;;;;;;;4932620;28;20250;-76
2022/02/16 03:28:54;;;;;;;6.80;5.90;;;;;;;;;;4918637;29;20300;-75
2022/02/16 03:31:23;;;;;;;6.00;5.50;;;;;;;;;;4913043;29;20224;-75
2022/02/16 03:33:56;;;;;;;6.13;5.53;;;;;;;;;;4926831;29;20259;-76
2022/02/16 03:36:25;;;;;;;6.50;5.90;;;;;;;;;;4890593;29;20227;-75
2022/02/16 03:38:53;;;;;;;6.43;5.83;;;;;;;;;;4926532;29;20243;-76
2022/02/16 03:41:23;;;;;;;5.73;5.13;;;;;;;;;;4901253;28;20294;-75
2022/02/16 03:43:49;;;;;;;4.80;4.40;;;;;;;;;;4903973;29;20230;-75
2022/02/16 03:46:20;;;;;;;5.27;4.77;;;;;;;;;;4929572;29;20224;-76
2022/02/16 03:48:46;;;;;;;4.80;4.23;;;;;;;;;;4929476;29;20227;-75
2022/02/16 03:51:17;;;;;;;4.80;4.40;;;;;;;;;;4904789;28;20661;-75
2022/02/16 03:53:43;;;;;;;4.43;4.03;;;;;;;;;;4926095;29;20807;-75
2022/02/16 03:56:12;;;;;;;4.80;4.40;;;;;;;;;;4902026;29;20709;-75
2022/02/16 03:58:44;;;;;;;4.10;3.80;;;;;;;;;;4926334;29;20227;-76
2022/02/16 04:01:12;;;;;;;4.17;3.87;;;;;;;;;;4920211;28;20620;-76
2022/02/16 04:03:38;;;;;;;4.27;3.67;;;;;;;;;;4900045;29;20235;-76
2022/02/16 04:06:09;;;;;;;4.17;3.83;;;;;;;;;;4914516;29;20216;-75
2022/02/16 04:08:34;;;;;;;4.10;3.80;;;;;;;;;;4903283;29;20251;-77
2022/02/16 04:11:03;;;;;;;4.53;4.13;;;;;;;;;;4922953;29;20594;-77
2022/02/16 04:13:31;;;;;;;4.20;3.90;;;;;;;;;;4887245;29;20241;-76
2022/02/16 04:15:59;;;;;;;4.17;3.83;;;;;;;;;;4897537;29;20718;-76
2022/02/16 04:18:27;;;;;;;3.83;3.60;;;;;;;;;;4904704;28;20226;-76
2022/02/16 04:20:55;;;;;;;4.90;4.50;;;;;;;;;;4951907;28;20279;-77
2022/02/16 04:23:29;;;;;;;4.50;4.10;;;;;;;;;;4907400;29;20232;-78
2022/02/16 04:25:57;;;;;;;4.27;3.77;;;;;;;;;;4917983;29;20311;-76
2022/02/16 04:28:26;;;;;;;4.57;4.17;;;;;;;;;;4935363;28;20697;-75
2022/02/16 04:30:53;;;;;;;4.93;4.53;;;;;;;;;;4920077;29;20732;-76
2022/02/16 04:33:19;;;;;;;4.87;4.20;;;;;;;;;;4917052;28;20259;-75
2022/02/16 04:35:45;;;;;;;4.87;4.37;;;;;;;;;;4916697;29;20460;-75
2022/02/16 04:38:14;;;;;;;5.47;4.90;;;;;;;;;;4901035;29;20224;-75
2022/02/16 04:40:40;;;;;;;4.60;4.20;;;;;;;;;;4935499;29;20307;-75
2022/02/16 04:43:08;;;;;;;4.43;3.70;;;;;;;;;;4935321;28;20704;-75
2022/02/16 04:45:41;;;;;;;4.30;3.90;;;;;;;;;;4916917;29;20307;-75
2022/02/16 04:48:10;;;;;;;4.53;4.13;;;;;;;;;;4884722;29;20242;-75
2022/02/16 04:50:40;;;;;;;3.97;3.67;;;;;;;;;;4935351;29;20233;-75
2022/02/16 04:53:06;;;;;;;3.93;3.63;;;;;;;;;;4933034;29;20721;-75
2022/02/16 04:55:37;;;;;;;3.80;3.40;;;;;;;;;;4903998;29;20232;-75
2022/02/16 04:58:13;;;;;;;3.60;3.30;;;;;;;;;;4884770;29;20227;-73
2022/02/16 05:00:41;;;;;;;3.80;3.40;;;;;;;;;;4885121;29;20233;-73
2022/02/16 05:03:25;;;;;;;4.53;3.53;;;;;;;;;;4900413;29;20773;-73
2022/02/16 05:05:53;;;;;;;3.60;3.27;;;;;;;;;;4917476;29;20268;-73
2022/02/16 05:08:23;;;;;;;3.07;2.80;;;;;;;;;;4933483;28;20310;-74
2022/02/16 05:10:49;;;;;;;3.03;2.83;;;;;;;;;;4886436;29;20623;-73
2022/02/16 05:13:26;;;;;;;3.07;2.70;;;;;;;;;;4884671;29;20212;-74
2022/02/16 05:15:51;;;;;;;6.30;4.80;;;;;;;;;;4916841;29;20247;-74
2022/02/16 05:18:21;;;;;;;2.67;2.47;;;;;;;;;;4934044;28;20227;-74
2022/02/16 05:20:54;;;;;;;2.97;2.40;;;;;;;;;;4888813;29;20227;-75
2022/02/16 05:23:20;;;;;;;2.97;2.27;;;;;;;;;;4898696;29;20305;-75
2022/02/16 05:25:54;;;;;;;2.87;2.50;;;;;;;;;;4884786;29;20228;-74
2022/02/16 05:28:23;;;;;;;2.50;2.30;;;;;;;;;;4903348;28;20228;-73
2022/02/16 05:30:51;;;;;;;2.17;2.07;;;;;;;;;;4889031;29;20312;-74
2022/02/16 05:33:19;;;;;;;2.97;2.20;;;;;;;;;;4901116;29;20223;-74
2022/02/16 05:35:49;;;;;;;2.43;2.20;;;;;;;;;;4913617;29;20232;-75
2022/02/16 05:38:15;;;;;;;2.43;2.20;;;;;;;;;;4950744;28;20231;-74
2022/02/16 05:40:43;;;;;;;2.20;2.10;;;;;;;;;;4891544;29;20231;-73
2022/02/16 05:43:14;;;;;;;2.73;2.40;;;;;;;;;;4883608;29;20231;-74
2022/02/16 05:45:43;;;;;;;2.40;2.20;;;;;;;;;;4927033;29;20219;-73
2022/02/16 05:48:19;;;;;;;3.90;2.27;;;;;;;;;;4949834;28;20232;-75
2022/02/16 05:50:51;;;;;;;2.50;2.30;;;;;;;;;;4938520;28;20228;-74
2022/02/16 05:53:18;;;;;;;3.13;2.73;;;;;;;;;;4898243;29;20232;-74
2022/02/16 05:55:44;;;;;;;3.67;2.40;;;;;;;;;;4925373;29;20220;-75
2022/02/16 05:58:11;;;;;;;2.77;2.50;;;;;;;;;;4918058;28;20223;-74
2022/02/16 06:00:38;;;;;;;2.90;2.20;;;;;;;;;;4909061;29;20232;-75
2022/02/16 06:03:06;;;;;;;2.70;2.50;;;;;;;;;;4882939;29;20228;-75
2022/02/16 06:05:35;;;;;;;2.53;2.33;;;;;;;;;;4887896;29;20364;-75
2022/02/16 06:08:06;;;;;;;2.50;2.30;;;;;;;;;;4915323;29;20224;-74
2022/02/16 06:10:34;;;;;;;2.50;2.30;;;;;;;;;;4904725;29;20223;-75
2022/02/16 06:13:02;;;;;;;2.47;2.27;;;;;;;;;;4917850;29;20227;-74
2022/02/16 06:15:33;;;;;;;2.57;2.37;;;;;;;;;;4942899;28;20236;-73
2022/02/16 06:18:01;;;;;;;2.83;2.60;;;;;;;;;;4868323;29;20231;-74
2022/02/16 06:20:26;;;;;;;3.30;2.83;;;;;;;;;;4934597;28;20302;-74
2022/02/16 06:22:56;;;;;;;3.03;2.83;;;;;;;;;;4917446;29;20231;-76
2022/02/16 06:25:24;;;;;;;3.20;2.90;;;;;;;;;;4912494;29;20247;-75
2022/02/16 06:27:54;;;;;;;3.87;3.57;;;;;;;;;;4914752;29;20220;-74
2022/02/16 06:30:25;;;;;;;4.23;3.83;;;;;;;;;;4923093;28;20743;-74
2022/02/16 06:32:55;;;;;;;4.20;3.90;;;;;;;;;;4900703;29;20223;-74
2022/02/16 06:35:27;;;;;;;4.40;4.03;;;;;;;;;;4932540;28;20239;-75
2022/02/16 06:37:53;;;;;;;4.90;4.40;;;;;;;;;;4918047;29;20231;-75
2022/02/16 06:40:20;;;;;;;5.07;4.67;;;;;;;;;;4915613;28;20223;-75
2022/02/16 06:42:49;;;;;;;5.43;4.93;;;;;;;;;;4914258;29;20288;-75
2022/02/16 06:45:21;;;;;;;5.23;4.83;;;;;;;;;;4899093;29;20228;-75
2022/02/16 06:47:49;;;;;;;5.80;5.00;;;;;;;;;;4918153;29;20231;-75
2022/02/16 06:50:18;;;;;;;5.67;5.17;;;;;;;;;;4901840;28;20228;-75
2022/02/16 06:53:07;;;;;;;6.00;5.13;;;;;;;;;;4904229;28;20294;-74
2022/02/16 06:55:33;;;;;;;5.70;5.20;;;;;;;;;;4932486;29;20783;-75
2022/02/16 06:58:02;;;;;;;5.67;5.17;;;;;;;;;;4899340;29;20256;-75
2022/02/16 07:00:29;;;;;;;5.47;5.00;;;;;;;;;;4915014;29;20235;-74
2022/02/16 07:02:56;;;;;;;5.47;4.97;;;;;;;;;;4895681;29;20307;-76
2022/02/16 07:05:35;;;;;;;5.90;5.30;;;;;;;;;;4894002;29;20228;-75
2022/02/16 07:08:05;;;;;;;6.27;5.70;;;;;;;;;;4898404;29;20239;-74
2022/02/16 07:10:35;;;;;;;6.47;5.00;;;;;;;;;;4929778;29;20232;-75
2022/02/16 07:13:06;;;;;;;6.57;5.97;;;;;;;;;;4926575;28;20219;-73
2022/02/16 07:15:33;;;;;;;5.83;5.33;;;;;;;;;;4905864;29;20247;-74
2022/02/16 07:18:01;;;;;;;5.37;4.97;;;;;;;;;;4921382;29;20223;-74
2022/02/16 07:20:34;;;;;;;5.80;5.30;;;;;;;;;;4922917;29;20805;-75
2022/02/16 07:23:06;;;;;;;6.00;5.50;;;;;;;;;;4910134;29;20616;-73
2022/02/16 07:25:34;;;;;;;6.43;5.93;;;;;;;;;;4897192;29;20311;-73
2022/02/16 07:28:04;;;;;;;5.73;5.23;;;;;;;;;;4885195;29;20256;-73
2022/02/16 07:30:33;;;;;;;5.63;5.13;;;;;;;;;;4927661;29;20744;-75
2022/02/16 07:32:59;;;;;;;5.10;4.70;;;;;;;;;;4934998;28;20228;-74
2022/02/16 07:35:26;;;;;;;5.00;4.50;;;;;;;;;;4917311;29;20231;-74
2022/02/16 07:37:53;;;;;;;6.33;5.73;;;;;;;;;;4905877;29;20220;-73
2022/02/16 07:40:19;;;;;;;5.50;5.00;;;;;;;;;;4873529;29;20232;-73
2022/02/16 07:42:49;;;;;;;6.80;6.10;;;;;;;;;;4898376;29;20234;-72
2022/02/16 07:45:27;;;;;;;3.83;3.53;;;;;;;;;;4913952;29;20281;-72
2022/02/16 07:47:56;;;;;;;4.20;3.90;;;;;;;;;;4927356;29;20228;-73
2022/02/16 07:50:22;;;;;;;4.30;3.90;;;;;;;;;;4948839;28;20596;-73
2022/02/16 07:53:17;;;;;;;5.33;4.70;;;;;;;;;;4864989;29;20253;-73
2022/02/16 07:55:49;;;;;;;4.03;3.67;;;;;;;;;;4912310;29;20228;-73
2022/02/16 07:58:17;;;;;;;3.57;3.27;;;;;;;;;;4893317;29;20228;-72
2022/02/16 08:00:43;;;;;;;4.33;3.60;;;;;;;;;;4898100;29;20228;-73
2022/02/16 08:03:18;;;;;;;4.67;3.53;;;;;;;;;;4908251;29;20224;-73
2022/02/16 08:05:47;;;;;;;4.00;3.23;;;;;;;;;;4889567;29;20231;-73
2022/02/16 08:08:22;;;;;;;4.23;3.30;;;;;;;;;;4931824;28;20224;-72
2022/02/16 08:10:50;;;;;;;3.43;3.23;;;;;;;;;;4929658;29;20224;-72
2022/02/16 08:13:17;;;;;;;3.80;3.50;;;;;;;;;;4900399;28;20230;-73
2022/02/16 08:16:07;;;;;;;3.70;3.13;;;;;;;;;;4938789;28;20234;-73
2022/02/16 08:18:40;;;;;;;3.50;3.30;;;;;;;;;;4886556;29;20220;-73
2022/02/16 08:21:06;;;;;;;3.77;3.30;;;;;;;;;;4903205;29;20220;-73
2022/02/16 08:23:43;;;;;;;3.77;3.47;;;;;;;;;;4928646;29;20226;-74
2022/02/16 08:26:11;;;;;;;4.53;3.47;;;;;;;;;;4896364;29;20231;-73
2022/02/16 08:28:38;;;;;;;3.50;3.30;;;;;;;;;;4882634;29;20311;-73
2022/02/16 08:31:03;;;;;;;3.40;3.20;;;;;;;;;;4918435;29;20311;-72
2022/02/16 08:33:52;;;;;;;3.93;3.53;;;;;;;;;;4895633;29;20228;-73
2022/02/16 08:36:24;;;;;;;4.87;4.47;;;;;;;;;;4918793;29;20970;-72
2022/02/16 08:38:50;;;;;;;4.70;4.30;;;;;;;;;;4901118;29;20236;-73
2022/02/16 08:41:16;;;;;;;3.83;3.53;;;;;;;;;;4900304;29;20228;-73
2022/02/16 08:43:42;;;;;;;3.63;3.33;;;;;;;;;;4914992;29;20578;-73
2022/02/16 08:46:10;;;;;;;4.10;3.70;;;;;;;;;;4904780;29;20606;-73
2022/02/16 08:48:38;;;;;;;4.80;3.50;;;;;;;;;;4914198;29;20712;-73
2022/02/16 08:51:03;;;;;;;2.67;2.47;;;;;;;;;;4909432;29;20276;-73
2022/02/16 08:53:36;;;;;;;2.67;2.47;;;;;;;;;;4931014;28;20232;-74
2022/02/16 08:56:02;;;;;;;3.47;2.87;;;;;;;;;;4917820;29;20236;-74
2022/02/16 08:58:27;;;;;;;2.97;2.63;;;;;;;;;;4907578;29;20705;-73
2022/02/16 09:00:55;;;;;;;2.70;2.50;;;;;;;;;;4920823;29;20233;-75
2022/02/16 09:03:24;;;;;;;4.40;2.30;;;;;;;;;;4944463;28;20311;-73
2022/02/16 09:05:52;;;;;;;2.70;2.50;;;;;;;;;;4892630;29;20220;-73
2022/02/16 09:08:19;;;;;;;2.07;1.97;;;;;;;;;;4923893;29;20216;-72
2022/02/16 09:10:48;;;;;;;2.23;2.00;;;;;;;;;;4914500;29;20247;-72
2022/02/16 09:13:14;;;;;;;2.73;2.53;;;;;;;;;;4922088;29;20223;-73
2022/02/16 09:15:42;;;;;;;2.53;2.20;;;;;;;;;;4915776;29;20754;-72
2022/02/16 09:18:10;;;;;;;1.87;1.77;;;;;;;;;;4918257;28;20219;-72
2022/02/16 09:20:38;;;;;;;3.03;2.60;;;;;;;;;;4935009;28;20232;-73
2022/02/16 09:23:04;;;;;;;2.13;1.57;;;;;;;;;;4916352;29;20250;-73
2022/02/16 09:25:31;;;;;;;1.93;1.83;;;;;;;;;;4884076;29;20236;-72
2022/02/16 09:27:57;;;;;;;1.67;1.57;;;;;;;;;;4933434;29;20244;-73
2022/02/16 09:30:26;;;;;;;1.60;1.50;;;;;;;;;;4918733;28;20219;-73
2022/02/16 09:32:56;;;;;;;1.53;1.43;;;;;;;;;;4934372;29;20237;-72
2022/02/16 09:35:22;;;;;;;11.53;7.03;;;;;;;;;;4915641;29;20248;-72
2022/02/16 09:37:47;;;;;;;2.17;1.90;;;;;;;;;;4917524;29;20283;-72
2022/02/16 09:40:15;;;;;;;1.63;1.43;;;;;;;;;;4947882;28;20224;-72
2022/02/16 09:42:44;;;;;;;3.30;3.00;;;;;;;;;;4935360;28;20270;-72
2022/02/16 09:45:10;;;;;;;2.20;2.00;;;;;;;;;;4902955;29;20231;-73
2022/02/16 09:47:38;;;;;;;1.87;1.77;;;;;;;;;;4900037;29;20245;-73
2022/02/16 09:50:07;;;;;;;2.10;1.80;;;;;;;;;;4929072;28;20393;-72
2022/02/16 09:52:35;;;;;;;2.07;1.97;;;;;;;;;;4903435;29;20228;-73
2022/02/16 09:55:08;;;;;;;2.73;1.70;;;;;;;;;;4916408;28;20247;-73
2022/02/16 09:57:36;;;;;;;2.57;1.60;;;;;;;;;;4929906;29;20231;-72
2022/02/16 10:00:03;;;;;;;1.40;1.30;;;;;;;;;;4895573;29;20225;-72
2022/02/16 10:02:38;;;;;;;1.93;1.60;;;;;;;;;;4923339;28;20768;-73
2022/02/16 10:05:07;;;;;;;3.33;1.40;;;;;;;;;;4919345;29;20228;-73
2022/02/16 10:07:38;;;;;;;1.80;1.50;;;;;;;;;;4900405;29;20647;-73
2022/02/16 10:10:23;;;;;;;1.33;1.23;;;;;;;;;;4901363;29;20239;-74
2022/02/16 10:12:56;;;;;;;1.87;1.40;;;;;;;;;;4914346;29;20255;-75
2022/02/16 10:15:24;;;;;;;1.17;1.07;;;;;;;;;;4898570;29;20610;-73
2022/02/16 10:18:04;;;;;;;1.13;1.13;;;;;;;;;;4883680;29;20228;-73
2022/02/16 10:20:34;;;;;;;1.10;1.10;;;;;;;;;;4944020;28;20234;-73
2022/02/16 10:23:00;;;;;;;12.63;8.60;;;;;;;;;;4917741;29;20227;-74
2022/02/16 10:25:27;;;;;;;2.20;2.00;;;;;;;;;;4904950;29;20299;-73
2022/02/16 10:28:07;;;;;;;7.53;5.83;;;;;;;;;;4914749;29;20228;-73
2022/02/16 10:30:33;;;;;;;2.30;2.10;;;;;;;;;;4890971;29;20224;-73
2022/02/16 10:33:19;;;;;;;1.63;1.53;;;;;;;;;;4929892;29;20227;-73
2022/02/16 10:35:46;;;;;;;2.43;2.23;;;;;;;;;;4917015;29;20258;-74
2022/02/16 10:38:12;;;;;;;1.30;1.20;;;;;;;;;;4901685;28;20231;-73
2022/02/16 10:40:38;;;;;;;1.20;1.10;;;;;;;;;;4930093;29;20232;-74
2022/02/16 10:43:06;;;;;;;1.60;1.50;;;;;;;;;;4913923;29;20359;-73
2022/02/16 10:45:32;;;;;;;1.07;1.07;;;;;;;;;;4932900;29;20243;-73
2022/02/16 10:48:02;;;;;;;1.90;1.80;;;;;;;;;;4901926;29;20227;-74
2022/02/16 10:50:46;;;;;;;1.23;1.20;;;;;;;;;;4901655;29;20231;-74
2022/02/16 10:53:25;;;;;;;1.70;1.60;;;;;;;;;;4947075;28;20223;-73
2022/02/16 10:55:54;;;;;;;1.20;1.10;;;;;;;;;;4914604;29;20235;-75
2022/02/16 10:58:23;;;;;;;1.00;1.00;;;;;;;;;;4911558;29;20502;-74
2022/02/16 11:00:51;;;;;;;1.40;0.97;;;;;;;;;;4913933;29;20263;-74
2022/02/16 11:03:27;;;;;;;1.13;1.13;;;;;;;;;;4915509;29;20624;-74
2022/02/16 11:05:54;;;;;;;1.60;1.50;;;;;;;;;;4881415;29;20220;-74
2022/02/16 11:08:21;;;;;;;1.47;1.37;;;;;;;;;;4926819;29;20264;-75
2022/02/16 11:10:49;;;;;;;2.00;1.90;;;;;;;;;;4886344;29;20227;-73
2022/02/16 11:13:24;;;;;;;1.80;1.70;;;;;;;;;;4913744;29;20263;-74
2022/02/16 11:15:50;;;;;;;1.90;1.80;;;;;;;;;;4908582;29;20738;-75
2022/02/16 11:18:22;;;;;;;2.57;2.47;;;;;;;;;;4913298;29;20228;-73
2022/02/16 11:21:07;;;;;;;3.20;3.00;;;;;;;;;;4887627;29;20260;-74
2022/02/16 11:23:42;;;;;;;2.87;2.67;;;;;;;;;;4910356;29;20229;-75
2022/02/16 11:26:30;;;;;;;2.30;2.20;;;;;;;;;;4910768;29;20733;-74
2022/02/16 11:28:59;;;;;;;3.23;2.50;;;;;;;;;;4917994;29;20228;-75
2022/02/16 11:31:31;;;;;;;2.67;2.47;;;;;;;;;;4897740;29;20227;-77
2022/02/16 11:34:25;;;;;;;14.80;10.57;;;;;;;;;;4899748;29;20244;-77
2022/02/16 11:37:03;;;;;;;23.03;14.00;;;;;;;;;;4909572;29;20224;-77
2022/02/16 11:39:49;;;;;;;6.77;6.17;;;;;;;;;;4948209;28;20231;-75
2022/02/16 11:42:19;;;;;;;3.37;3.17;;;;;;;;;;4916263;28;20236;-76
2022/02/16 11:44:51;;;;;;;3.23;2.97;;;;;;;;;;4898802;29;20236;-77
2022/02/16 11:47:34;;;;;;;3.30;3.10;;;;;;;;;;4928231;28;20231;-76
2022/02/16 11:50:08;;;;;;;4.37;4.07;;;;;;;;;;4941033;28;20231;-76
2022/02/16 11:52:38;;;;;;;3.40;3.20;;;;;;;;;;4924412;28;20310;-77
2022/02/16 11:55:07;;;;;;;3.60;3.40;;;;;;;;;;4913135;29;20319;-77
2022/02/16 11:57:44;;;;;;;3.73;3.43;;;;;;;;;;4918055;29;20235;-76
2022/02/16 12:00:18;;;;;;;3.40;3.20;;;;;;;;;;4932816;28;20233;-75
2022/02/16 12:03:02;;;;;;;4.10;3.80;;;;;;;;;;4929860;29;20236;-74
2022/02/16 12:05:41;;;;;;;5.80;5.30;;;;;;;;;;4913903;29;20240;-76
2022/02/16 12:08:13;;;;;;;4.70;4.30;;;;;;;;;;4897225;29;20707;-75
2022/02/16 12:10:49;;;;;;;4.53;4.13;;;;;;;;;;4899808;29;20233;-77
2022/02/16 12:13:15;;;;;;;3.50;3.30;;;;;;;;;;4920085;28;20229;-77
2022/02/16 12:15:40;;;;;;;3.83;3.63;;;;;;;;;;4905415;29;20667;-75
2022/02/16 12:18:11;;;;;;;4.20;4.00;;;;;;;;;;4920682;28;20231;-78
2022/02/16 12:20:39;;;;;;;3.93;3.63;;;;;;;;;;4921014;29;20236;-75
2022/02/16 12:23:05;;;;;;;4.27;3.97;;;;;;;;;;4898876;29;20217;-74
2022/02/16 12:25:32;;;;;;;3.70;3.50;;;;;;;;;;4917672;29;20228;-77
2022/02/16 12:28:04;;;;;;;3.90;3.70;;;;;;;;;;4882457;29;20232;-75
2022/02/16 12:30:42;;;;;;;3.70;3.40;;;;;;;;;;4895897;29;20232;-77
2022/02/16 12:33:20;;;;;;;3.83;3.63;;;;;;;;;;4918602;29;20287;-76
2022/02/16 12:35:51;;;;;;;3.27;3.07;;;;;;;;;;4916949;29;20236;-76
2022/02/16 12:38:29;;;;;;;3.37;3.17;;;;;;;;;;4920331;28;20256;-74
2022/02/16 12:40:54;;;;;;;4.23;3.70;;;;;;;;;;4937335;28;20291;-73
2022/02/16 12:43:22;;;;;;;3.93;3.63;;;;;;;;;;4894369;29;20357;-74
2022/02/16 12:45:52;;;;;;;3.67;3.40;;;;;;;;;;4902564;29;20231;-74
2022/02/16 12:48:18;;;;;;;3.60;3.30;;;;;;;;;;4892218;29;20658;-73
2022/02/16 12:50:44;;;;;;;3.57;3.37;;;;;;;;;;4901178;29;20254;-74
2022/02/16 12:53:10;;;;;;;3.40;3.20;;;;;;;;;;4899372;28;20228;-74
2022/02/16 12:55:45;;;;;;;3.47;3.27;;;;;;;;;;4878075;29;20315;-75
2022/02/16 12:58:12;;;;;;;2.63;2.43;;;;;;;;;;4904631;28;20234;-73
2022/02/16 13:00:47;;;;;;;2.77;2.57;;;;;;;;;;4913549;29;20231;-75
2022/02/16 13:03:21;;;;;;;2.80;2.60;;;;;;;;;;4922988;29;20279;-75
2022/02/16 13:05:47;;;;;;;2.80;2.60;;;;;;;;;;4920800;29;20228;-74
2022/02/16 13:08:16;;;;;;;2.27;2.07;;;;;;;;;;4936859;28;20227;-77
2022/02/16 13:10:44;;;;;;;2.70;2.50;;;;;;;;;;4907720;29;20224;-74
2022/02/16 13:13:20;;;;;;;2.23;2.13;;;;;;;;;;4899894;28;20234;-74
2022/02/16 13:15:47;;;;;;;2.67;2.47;;;;;;;;;;4944700;28;20235;-77
2022/02/16 13:18:13;;;;;;;3.33;3.03;;;;;;;;;;4932662;28;20228;-77
2022/02/16 13:20:44;;;;;;;2.80;2.60;;;;;;;;;;4899310;29;20220;-75
2022/02/16 13:23:16;;;;;;;2.90;2.70;;;;;;;;;;4900774;29;20319;-74
2022/02/16 13:25:56;;;;;;;4.67;4.20;;;;;;;;;;4908459;29;20236;-75
2022/02/16 13:28:25;;;;;;;2.13;2.03;;;;;;;;;;4946707;28;20234;-76
2022/02/16 13:30:55;;;;;;;2.20;2.10;;;;;;;;;;4900170;29;20224;-75
2022/02/16 13:33:28;;;;;;;2.20;2.10;;;;;;;;;;4904829;28;20278;-78
2022/02/16 13:36:02;;;;;;;2.50;2.30;;;;;;;;;;4916139;29;20262;-73
2022/02/16 13:38:32;;;;;;;3.00;2.80;;;;;;;;;;4896452;29;20228;-74
2022/02/16 13:41:11;;;;;;;3.40;3.10;;;;;;;;;;4896889;29;20233;-76
2022/02/16 13:43:53;;;;;;;4.47;4.07;;;;;;;;;;4926954;29;20260;-76
2022/02/16 13:46:27;;;;;;;3.47;3.20;;;;;;;;;;4919652;28;20227;-76
2022/02/16 13:49:09;;;;;;;5.57;3.40;;;;;;;;;;4891806;29;20757;-75
2022/02/16 13:51:35;;;;;;;5.07;4.07;;;;;;;;;;4916525;29;20220;-74
2022/02/16 13:54:00;;;;;;;4.43;4.00;;;;;;;;;;4913468;29;20253;-75
2022/02/16 13:56:30;;;;;;;5.87;4.63;;;;;;;;;;4902722;28;20306;-76
2022/02/16 13:59:05;;;;;;;5.97;4.73;;;;;;;;;;4890109;29;20217;-77
2022/02/16 14:01:31;;;;;;;4.77;4.33;;;;;;;;;;4911497;29;20219;-76
2022/02/16 14:04:05;;;;;;;5.13;4.37;;;;;;;;;;4927409;29;20228;-76
2022/02/16 14:06:34;;;;;;;5.27;4.60;;;;;;;;;;4930402;29;20232;-74
2022/02/16 14:09:01;;;;;;;6.60;5.20;;;;;;;;;;4885724;29;20225;-75
2022/02/16 14:11:27;;;;;;;5.40;4.87;;;;;;;;;;4891447;29;20235;-76
2022/02/16 14:13:58;;;;;;;5.70;5.10;;;;;;;;;;4927047;29;20224;-77
2022/02/16 14:16:26;;;;;;;6.20;5.10;;;;;;;;;;4925303;29;20259;-75
2022/02/16 14:21:38;;;;;;;6.53;5.13;;;;;;;;;;4886425;29;20228;-75
2022/02/16 14:24:08;;;;;;;7.53;6.10;;;;;;;;;;4914536;29;20221;-74
2022/02/16 14:26:35;;;;;;;6.43;5.83;;;;;;;;;;4898160;29;20239;-73
2022/02/16 14:29:02;;;;;;;8.57;5.77;;;;;;;;;;4923859;29;20242;-75
2022/02/16 14:31:30;;;;;;;7.67;6.03;;;;;;;;;;4900996;29;20243;-75
2022/02/16 14:34:00;;;;;;;7.87;7.03;;;;;;;;;;4906469;29;20332;-74
2022/02/16 14:36:27;;;;;;;10.00;7.00;;;;;;;;;;4908931;29;20895;-76
2022/02/16 14:38:55;;;;;;;8.00;6.30;;;;;;;;;;4915513;29;20228;-75
2022/02/16 14:41:22;;;;;;;10.77;7.10;;;;;;;;;;4929408;29;20340;-76
2022/02/16 14:43:51;;;;;;;7.53;6.67;;;;;;;;;;4914668;29;20647;-76
2022/02/16 14:46:19;;;;;;;9.20;7.23;;;;;;;;;;4929757;29;20232;-75
2022/02/16 14:48:47;;;;;;;9.47;7.07;;;;;;;;;;4903443;29;20215;-76
2022/02/16 14:51:13;;;;;;;8.17;6.63;;;;;;;;;;4917259;28;20228;-75
2022/02/16 14:53:41;;;;;;;8.10;6.93;;;;;;;;;;4914056;29;20306;-75
2022/02/16 14:56:10;;;;;;;7.77;6.97;;;;;;;;;;4896854;29;20232;-75
2022/02/16 14:58:36;;;;;;;9.50;7.63;;;;;;;;;;4909879;29;20420;-76
2022/02/16 15:01:02;;;;;;;11.23;7.70;;;;;;;;;;4910197;29;20244;-75
2022/02/16 15:03:30;;;;;;;8.40;6.33;;;;;;;;;;4907048;29;20310;-76